Time;durP1;ratioP1;P1;durP2;ratioP2;P2;SDS_P1;SDS_P2;PMS_P1;PMS_P2;Temp;Humidity;BMP_temperature;BMP_pressure;BME280_temperature;BME280_humidity;BME280_pressure;Samples;Min_cycle;Max_cycle;Signal;HPM_P1;HPM_P2
2021/11/20 00:01:17;;;;;;;11.20;7.18;;;11.80;97.50;;;;;;5041710;28;20033;-73
2021/11/20 00:03:45;;;;;;;15.30;9.18;;;11.80;97.50;;;;;;5059435;28;20028;-74
2021/11/20 00:06:13;;;;;;;13.77;7.00;;;11.80;97.50;;;;;;5058262;28;20040;-74
2021/11/20 00:08:39;;;;;;;14.30;8.52;;;11.80;97.50;;;;;;5058230;28;20048;-74
2021/11/20 00:11:07;;;;;;;12.50;8.55;;;11.80;97.50;;;;;;5041754;28;20025;-74
2021/11/20 00:13:34;;;;;;;15.00;9.90;;;11.80;97.50;;;;;;5059503;28;20037;-74
2021/11/20 00:16:02;;;;;;;11.10;8.65;;;11.80;97.50;;;;;;5058475;28;20064;-74
2021/11/20 00:18:31;;;;;;;13.52;8.35;;;11.80;97.50;;;;;;5058277;28;20424;-74
2021/11/20 00:20:59;;;;;;;14.93;8.38;;;11.80;97.80;;;;;;5059533;28;20028;-74
2021/11/20 00:23:29;;;;;;;12.23;8.70;;;11.80;97.50;;;;;;5059415;28;20429;-74
2021/11/20 00:25:58;;;;;;;10.82;8.30;;;11.80;97.50;;;;;;5059354;28;20029;-74
2021/11/20 00:31:21;;;;;;;14.20;8.50;;;11.80;97.50;;;;;;5058428;28;20041;-74
2021/11/20 00:33:47;;;;;;;13.48;9.45;;;11.80;97.40;;;;;;5059306;28;20037;-74
2021/11/20 00:36:14;;;;;;;13.18;9.02;;;11.80;97.40;;;;;;5058189;28;20095;-74
2021/11/20 00:38:43;;;;;;;15.57;9.65;;;11.80;97.40;;;;;;5058200;28;20435;-74
2021/11/20 00:41:29;;;;;;;13.13;8.88;;;11.80;97.40;;;;;;5059220;28;20389;-74
2021/11/20 00:43:56;;;;;;;15.45;8.85;;;11.80;97.30;;;;;;5059093;28;20556;-74
2021/11/20 00:46:26;;;;;;;14.55;9.30;;;11.80;97.40;;;;;;5059351;28;20083;-74
2021/11/20 00:48:52;;;;;;;16.38;10.73;;;11.80;97.30;;;;;;5057944;28;20075;-74
2021/11/20 00:51:21;;;;;;;15.15;9.80;;;11.80;97.30;;;;;;5059146;28;20025;-74
2021/11/20 00:53:47;;;;;;;14.20;9.68;;;11.80;97.30;;;;;;5059077;28;20033;-74
2021/11/20 00:56:15;;;;;;;15.10;9.80;;;11.80;97.30;;;;;;5059058;28;20488;-75
2021/11/20 00:58:41;;;;;;;15.30;10.27;;;11.80;97.30;;;;;;5059035;28;20037;-74
2021/11/20 01:01:10;;;;;;;14.77;10.88;;;11.80;97.30;;;;;;5055755;28;20111;-74
2021/11/20 01:03:36;;;;;;;14.85;11.65;;;11.70;97.50;;;;;;5054584;28;20075;-74
2021/11/20 01:06:02;;;;;;;15.00;11.15;;;11.70;97.30;;;;;;5054559;28;20068;-74
2021/11/20 01:08:35;;;;;;;15.25;11.15;;;11.80;97.40;;;;;;5055863;28;20036;-75
2021/11/20 01:11:37;;;;;;;17.13;12.20;;;11.70;97.30;;;;;;5055882;28;20036;-75
2021/11/20 01:14:05;;;;;;;17.30;13.95;;;11.70;97.30;;;;;;5054420;28;20393;-75
2021/11/20 01:16:33;;;;;;;19.50;12.57;;;11.70;97.30;;;;;;5055595;28;20029;-74
2021/11/20 01:19:00;;;;;;;18.65;12.75;;;11.70;97.30;;;;;;5055607;28;20546;-74
2021/11/20 01:21:27;;;;;;;17.08;13.35;;;11.70;97.30;;;;;;5055450;28;20029;-74
2021/11/20 01:23:53;;;;;;;15.68;12.45;;;11.70;97.40;;;;;;5054173;28;20036;-74
2021/11/20 01:26:20;;;;;;;17.33;13.02;;;11.70;97.30;;;;;;5055409;28;20025;-75
2021/11/20 01:28:50;;;;;;;19.83;15.05;;;11.70;97.30;;;;;;5055220;28;20461;-74
2021/11/20 01:31:18;;;;;;;17.35;13.07;;;11.70;97.30;;;;;;5048190;28;20029;-74
2021/11/20 01:33:46;;;;;;;18.42;13.75;;;11.70;97.30;;;;;;5053982;28;20102;-74
2021/11/20 01:36:13;;;;;;;20.30;13.82;;;11.70;97.20;;;;;;5053910;28;20059;-74
2021/11/20 01:38:39;;;;;;;18.05;13.48;;;11.70;97.20;;;;;;5055829;28;20435;-74
2021/11/20 01:41:05;;;;;;;19.02;13.68;;;11.70;97.20;;;;;;5055607;28;20029;-74
2021/11/20 01:43:31;;;;;;;17.27;13.18;;;11.70;97.20;;;;;;5055389;28;20033;-74
2021/11/20 01:46:13;;;;;;;18.55;14.30;;;11.60;97.20;;;;;;5054124;28;20021;-74
2021/11/20 01:48:55;;;;;;;16.67;12.85;;;11.60;97.20;;;;;;5054038;28;20458;-74
2021/11/20 01:51:29;;;;;;;21.23;14.73;;;11.60;97.20;;;;;;5053940;28;20028;-74
2021/11/20 01:54:17;;;;;;;17.30;13.90;;;11.60;97.20;;;;;;5055325;28;20154;-74
2021/11/20 01:57:17;;;;;;;17.70;12.38;;;11.60;97.20;;;;;;5055483;28;20032;-74
2021/11/20 02:00:13;;;;;;;17.20;12.93;;;11.60;97.20;;;;;;5055212;28;20519;-74
2021/11/20 02:02:57;;;;;;;19.42;13.13;;;11.60;97.10;;;;;;5053714;28;20557;-74
2021/11/20 02:05:26;;;;;;;19.80;13.48;;;11.60;97.10;;;;;;5055135;28;20029;-74
2021/11/20 02:08:01;;;;;;;19.95;13.30;;;11.60;97.10;;;;;;5054003;28;20036;-74
2021/11/20 02:10:37;;;;;;;19.50;14.25;;;11.60;97.10;;;;;;5055098;28;20029;-74
2021/11/20 02:13:08;;;;;;;18.45;13.50;;;11.60;97.10;;;;;;5054419;28;20051;-74
2021/11/20 02:15:53;;;;;;;16.88;12.73;;;11.60;97.10;;;;;;5053617;28;20021;-74
2021/11/20 02:18:21;;;;;;;18.33;12.57;;;11.60;97.10;;;;;;5053597;28;20029;-74
2021/11/20 02:21:03;;;;;;;20.35;13.68;;;11.60;97.10;;;;;;5054885;28;20080;-74
2021/11/20 02:23:28;;;;;;;20.48;14.32;;;11.60;97.10;;;;;;5053410;28;20029;-74
2021/11/20 02:25:54;;;;;;;23.15;13.57;;;11.60;97.20;;;;;;5054581;28;20083;-74
2021/11/20 02:28:20;;;;;;;16.85;12.63;;;11.60;97.20;;;;;;5054513;28;20100;-74
2021/11/20 02:30:48;;;;;;;18.70;13.20;;;11.60;97.20;;;;;;5054606;28;20048;-74
2021/11/20 02:33:16;;;;;;;18.92;13.05;;;11.60;97.10;;;;;;5054709;28;20119;-74
2021/11/20 02:35:52;;;;;;;17.08;12.68;;;11.60;97.40;;;;;;5054316;28;20526;-74
2021/11/20 02:38:24;;;;;;;21.13;13.30;;;11.60;97.10;;;;;;5053053;28;20065;-74
2021/11/20 02:40:52;;;;;;;16.95;12.85;;;11.60;97.20;;;;;;5053511;28;20067;-74
2021/11/20 02:43:19;;;;;;;18.90;12.68;;;11.60;97.10;;;;;;5052827;28;20393;-74
2021/11/20 02:45:51;;;;;;;19.70;13.80;;;11.60;97.10;;;;;;5053434;28;20361;-74
2021/11/20 02:48:17;;;;;;;19.52;14.00;;;11.60;97.10;;;;;;5054442;28;20021;-74
2021/11/20 02:50:53;;;;;;;19.05;13.07;;;11.50;97.10;;;;;;5054400;28;20048;-74
2021/11/20 02:53:40;;;;;;;20.42;13.50;;;11.60;97.10;;;;;;5054006;28;20040;-74
2021/11/20 02:56:13;;;;;;;19.88;13.85;;;11.50;97.10;;;;;;5054013;28;20420;-74
2021/11/20 02:58:40;;;;;;;20.48;14.77;;;11.60;97.00;;;;;;5054260;28;20040;-74
2021/11/20 03:01:10;;;;;;;19.98;14.90;;;11.50;97.00;;;;;;5053926;28;20365;-74
2021/11/20 03:03:36;;;;;;;23.20;15.77;;;11.50;96.90;;;;;;5054158;28;20027;-74
2021/11/20 03:06:02;;;;;;;24.35;16.60;;;11.50;96.90;;;;;;5053994;28;20377;-74
2021/11/20 03:08:27;;;;;;;22.80;16.40;;;11.50;96.90;;;;;;5053824;28;20025;-74
2021/11/20 03:10:53;;;;;;;20.30;15.18;;;11.50;96.90;;;;;;5053708;28;20032;-74
2021/11/20 03:13:19;;;;;;;22.23;16.70;;;11.50;96.90;;;;;;5052552;28;20036;-74
2021/11/20 03:15:45;;;;;;;23.63;16.65;;;11.50;96.80;;;;;;5053730;28;20381;-74
2021/11/20 03:18:11;;;;;;;22.52;15.70;;;11.50;96.80;;;;;;5053580;28;20103;-74
2021/11/20 03:20:38;;;;;;;25.58;16.88;;;11.50;96.80;;;;;;5053897;28;20477;-74
2021/11/20 03:23:04;;;;;;;23.80;16.95;;;11.50;96.80;;;;;;5053614;28;20079;-74
2021/11/20 03:25:30;;;;;;;23.13;17.45;;;11.50;96.80;;;;;;5047646;28;20029;-74
2021/11/20 03:27:56;;;;;;;25.48;18.02;;;11.50;96.80;;;;;;5048843;28;20074;-74
2021/11/20 03:30:22;;;;;;;24.15;17.63;;;11.50;96.70;;;;;;5034755;28;20451;-74
2021/11/20 03:32:48;;;;;;;23.38;16.63;;;11.50;96.70;;;;;;5050247;28;20051;-74
2021/11/20 03:35:15;;;;;;;25.07;17.00;;;11.40;96.70;;;;;;5052295;28;20477;-74
2021/11/20 03:37:41;;;;;;;24.45;16.83;;;11.50;96.90;;;;;;5050160;28;20049;-74
2021/11/20 03:40:10;;;;;;;25.40;15.85;;;11.50;96.60;;;;;;5053164;28;20033;-74
2021/11/20 03:42:36;;;;;;;25.33;16.85;;;11.50;96.60;;;;;;5053092;28;20032;-74
2021/11/20 03:45:03;;;;;;;23.90;17.63;;;11.50;96.50;;;;;;5052891;28;20036;-74
2021/11/20 03:47:28;;;;;;;23.20;17.38;;;11.50;96.50;;;;;;5051775;28;20508;-74
2021/11/20 03:49:54;;;;;;;23.73;17.15;;;11.50;96.50;;;;;;5051874;28;20021;-74
2021/11/20 03:52:19;;;;;;;24.42;16.85;;;11.50;96.50;;;;;;5051737;28;20032;-74
2021/11/20 03:54:47;;;;;;;24.58;19.10;;;11.40;96.40;;;;;;5051926;28;20040;-74
2021/11/20 03:57:12;;;;;;;22.35;16.55;;;11.50;96.40;;;;;;5053026;28;20052;-74
2021/11/20 03:59:38;;;;;;;27.23;17.83;;;11.50;96.40;;;;;;5052973;28;20469;-74
2021/11/20 04:02:05;;;;;;;27.38;18.17;;;11.50;96.40;;;;;;5051554;28;20108;-74
2021/11/20 04:04:31;;;;;;;27.23;18.55;;;11.50;96.40;;;;;;5035091;28;20432;-74
2021/11/20 04:06:57;;;;;;;25.80;18.35;;;11.40;96.30;;;;;;5052858;28;20029;-74
2021/11/20 04:09:23;;;;;;;25.35;17.23;;;11.40;96.30;;;;;;5035139;28;20083;-74
2021/11/20 04:11:49;;;;;;;21.20;14.88;;;11.40;96.40;;;;;;5052801;28;20024;-75
2021/11/20 04:14:17;;;;;;;25.73;17.58;;;11.40;96.40;;;;;;5051624;28;20120;-75
2021/11/20 04:16:44;;;;;;;24.55;19.05;;;11.50;96.40;;;;;;5051991;28;20058;-74
2021/11/20 04:19:09;;;;;;;30.23;20.17;;;11.50;96.30;;;;;;5052933;28;20039;-74
2021/11/20 04:21:36;;;;;;;28.42;19.23;;;11.40;96.30;;;;;;5052753;28;20033;-75
2021/11/20 04:24:04;;;;;;;28.13;19.92;;;11.50;96.30;;;;;;5052923;28;20105;-74
2021/11/20 04:26:30;;;;;;;26.65;18.52;;;11.50;96.30;;;;;;5051617;28;20112;-74
2021/11/20 04:28:56;;;;;;;29.58;19.45;;;11.40;96.20;;;;;;5052920;28;20033;-74
2021/11/20 04:31:22;;;;;;;26.67;19.13;;;11.40;96.50;;;;;;5051527;28;20029;-74
2021/11/20 04:33:50;;;;;;;28.53;19.67;;;11.50;96.30;;;;;;5051293;28;20040;-74
2021/11/20 04:36:17;;;;;;;30.00;21.20;;;11.40;96.20;;;;;;5054424;28;20040;-75
2021/11/20 04:38:43;;;;;;;26.17;19.48;;;11.40;96.20;;;;;;5056438;28;20040;-74
2021/11/20 04:41:09;;;;;;;28.35;20.75;;;11.40;96.20;;;;;;5056347;28;20036;-74
2021/11/20 04:43:35;;;;;;;32.35;20.70;;;11.40;96.20;;;;;;5055018;28;20037;-74
2021/11/20 04:46:01;;;;;;;32.42;20.40;;;11.40;96.20;;;;;;5055317;28;20055;-74
2021/11/20 04:48:27;;;;;;;31.42;22.10;;;11.40;96.20;;;;;;5055118;28;20028;-74
2021/11/20 04:50:55;;;;;;;29.02;20.75;;;11.40;96.20;;;;;;5056237;28;20025;-74
2021/11/20 04:53:21;;;;;;;29.98;20.60;;;11.40;96.20;;;;;;5054875;28;20049;-74
2021/11/20 04:55:47;;;;;;;31.33;20.35;;;11.40;96.20;;;;;;5054698;28;20029;-75
2021/11/20 04:58:13;;;;;;;31.30;21.33;;;11.40;96.20;;;;;;5056284;28;20158;-74
2021/11/20 05:00:45;;;;;;;34.60;23.13;;;11.40;96.20;;;;;;5054734;28;20116;-75
2021/11/20 05:03:11;;;;;;;35.92;23.38;;;11.40;96.20;;;;;;5055957;28;20472;-74
2021/11/20 05:05:40;;;;;;;31.55;22.13;;;11.40;96.20;;;;;;5055892;28;20021;-74
2021/11/20 05:08:06;;;;;;;32.42;23.35;;;11.40;96.20;;;;;;5055783;28;20018;-74
2021/11/20 05:10:33;;;;;;;32.77;22.83;;;11.40;96.10;;;;;;5055841;28;20033;-74
2021/11/20 05:12:59;;;;;;;33.83;23.10;;;11.40;96.10;;;;;;5055757;28;20052;-74
2021/11/20 05:15:27;;;;;;;31.55;21.50;;;11.40;96.10;;;;;;5055678;28;20106;-74
2021/11/20 05:17:52;;;;;;;31.30;22.25;;;11.40;96.10;;;;;;5055619;28;20039;-74
2021/11/20 05:20:18;;;;;;;33.70;22.67;;;11.40;96.10;;;;;;5055584;28;20114;-74
2021/11/20 05:22:44;;;;;;;33.60;22.33;;;11.40;96.10;;;;;;5054533;28;20029;-74
2021/11/20 05:25:12;;;;;;;32.28;22.38;;;11.30;96.10;;;;;;5054222;28;20397;-74
2021/11/20 05:27:38;;;;;;;34.33;22.42;;;11.30;96.10;;;;;;5054174;28;20032;-74
2021/11/20 05:30:16;;;;;;;33.20;22.63;;;11.40;96.20;;;;;;5054180;28;20120;-74
2021/11/20 05:32:45;;;;;;;36.63;25.03;;;11.30;96.10;;;;;;5054172;28;20537;-74
2021/11/20 05:35:14;;;;;;;37.67;23.40;;;11.40;96.10;;;;;;5055325;28;20107;-74
2021/11/20 05:37:40;;;;;;;36.42;23.80;;;11.30;96.00;;;;;;5053916;28;20501;-74
2021/11/20 05:40:08;;;;;;;38.38;24.95;;;11.30;96.10;;;;;;5055140;28;20060;-74
2021/11/20 05:42:35;;;;;;;37.83;25.33;;;11.30;96.00;;;;;;5053838;28;20029;-74
2021/11/20 05:45:00;;;;;;;37.10;25.08;;;11.30;96.00;;;;;;5053834;28;20076;-74
2021/11/20 05:47:26;;;;;;;35.30;24.35;;;11.40;96.10;;;;;;5053356;28;20065;-74
2021/11/20 05:49:52;;;;;;;37.25;25.20;;;11.40;96.00;;;;;;5055095;28;20108;-74
2021/11/20 05:52:17;;;;;;;40.67;24.58;;;11.30;96.00;;;;;;5053957;28;20029;-74
2021/11/20 05:54:44;;;;;;;37.33;24.65;;;11.30;96.00;;;;;;5053899;28;20587;-74
2021/11/20 05:57:10;;;;;;;39.33;25.20;;;11.40;96.00;;;;;;5054812;28;20074;-74
2021/11/20 05:59:37;;;;;;;38.38;22.92;;;11.40;95.90;;;;;;5054907;28;20116;-74
2021/11/20 06:02:04;;;;;;;42.70;26.45;;;11.40;96.00;;;;;;5053593;28;20044;-74
2021/11/20 06:04:31;;;;;;;42.47;24.13;;;11.30;95.80;;;;;;5054776;28;20024;-74
2021/11/20 06:06:57;;;;;;;42.63;26.27;;;11.30;95.80;;;;;;5053454;28;20029;-74
2021/11/20 06:09:23;;;;;;;40.03;25.90;;;11.40;95.80;;;;;;5053629;28;20473;-74
2021/11/20 06:11:49;;;;;;;38.25;24.25;;;11.30;95.80;;;;;;5054630;28;20039;-74
2021/11/20 06:14:15;;;;;;;39.28;24.83;;;11.30;95.80;;;;;;5054713;28;20064;-74
2021/11/20 06:16:41;;;;;;;41.25;25.15;;;11.30;95.80;;;;;;5053277;28;20032;-74
2021/11/20 06:19:09;;;;;;;42.47;26.73;;;11.30;95.80;;;;;;5054514;28;20104;-74
2021/11/20 06:21:35;;;;;;;39.55;25.42;;;11.30;95.70;;;;;;5054848;28;20056;-74
2021/11/20 06:24:01;;;;;;;43.33;26.08;;;11.30;95.70;;;;;;5053152;28;20032;-74
2021/11/20 06:26:27;;;;;;;41.15;25.80;;;11.30;95.70;;;;;;5054337;28;20504;-74
2021/11/20 06:28:52;;;;;;;43.53;25.65;;;11.30;95.60;;;;;;5054311;28;20377;-74
2021/11/20 06:31:19;;;;;;;42.17;25.50;;;11.30;95.60;;;;;;5054293;28;20104;-74
2021/11/20 06:33:45;;;;;;;39.67;23.60;;;11.30;95.60;;;;;;5051100;28;20025;-74
2021/11/20 06:36:11;;;;;;;39.05;23.98;;;11.30;95.60;;;;;;5042455;28;20034;-74
2021/11/20 06:38:39;;;;;;;39.20;24.42;;;11.30;95.50;;;;;;5032925;28;20046;-74
2021/11/20 06:41:06;;;;;;;40.05;24.73;;;11.20;95.40;;;;;;5042215;28;20563;-74
2021/11/20 06:43:33;;;;;;;41.00;24.95;;;11.30;95.40;;;;;;5053959;28;20389;-74
2021/11/20 06:46:08;;;;;;;37.53;23.50;;;11.20;95.40;;;;;;5040742;28;20026;-74
2021/11/20 06:48:35;;;;;;;41.42;24.98;;;11.20;95.30;;;;;;5039569;28;20057;-74
2021/11/20 06:51:01;;;;;;;37.40;23.10;;;11.30;95.30;;;;;;5045047;28;20034;-74
2021/11/20 06:53:28;;;;;;;35.50;22.40;;;11.20;95.20;;;;;;5051545;28;20041;-74
2021/11/20 06:55:53;;;;;;;40.10;23.77;;;11.30;95.30;;;;;;5042602;28;20061;-74
2021/11/20 06:58:21;;;;;;;41.30;23.65;;;11.30;95.20;;;;;;5033796;28;20452;-74
2021/11/20 07:00:55;;;;;;;36.17;22.85;;;11.30;95.20;;;;;;5032352;28;20466;-74
2021/11/20 07:03:37;;;;;;;38.72;22.38;;;11.30;95.40;;;;;;5034658;28;20108;-74
2021/11/20 07:06:21;;;;;;;39.58;22.65;;;11.20;95.10;;;;;;5053337;28;20100;-74
2021/11/20 07:08:49;;;;;;;38.13;23.33;;;11.20;95.00;;;;;;5052410;28;20557;-74
2021/11/20 07:11:16;;;;;;;37.95;23.13;;;11.40;94.90;;;;;;5053497;28;20057;-74
2021/11/20 07:13:43;;;;;;;37.13;22.23;;;11.30;95.00;;;;;;5052145;28;20025;-74
2021/11/20 07:16:11;;;;;;;39.13;24.03;;;11.20;94.90;;;;;;5053850;28;20059;-74
2021/11/20 07:18:37;;;;;;;40.20;24.20;;;11.20;94.90;;;;;;5052895;28;20028;-75
2021/11/20 07:21:03;;;;;;;40.60;25.20;;;11.20;94.80;;;;;;5052570;28;20370;-75
2021/11/20 07:23:29;;;;;;;40.87;24.37;;;11.30;94.80;;;;;;5052850;28;20056;-75
2021/11/20 07:25:57;;;;;;;35.70;22.60;;;11.20;94.80;;;;;;5052998;28;20478;-75
2021/11/20 07:28:23;;;;;;;38.00;24.10;;;11.20;94.80;;;;;;5053344;28;20028;-75
2021/11/20 07:30:49;;;;;;;42.95;24.35;;;11.20;94.70;;;;;;5051932;28;20120;-75
2021/11/20 07:33:15;;;;;;;37.92;24.27;;;11.30;94.70;;;;;;5052981;28;20096;-75
2021/11/20 07:35:52;;;;;;;40.25;24.33;;;11.30;94.70;;;;;;5052941;28;20029;-75
2021/11/20 07:38:21;;;;;;;40.25;24.50;;;11.20;94.60;;;;;;5052508;28;20043;-75
2021/11/20 07:40:47;;;;;;;40.88;24.85;;;11.30;94.70;;;;;;5052958;28;20028;-75
2021/11/20 07:43:13;;;;;;;41.25;25.40;;;11.30;94.60;;;;;;5051949;28;20025;-75
2021/11/20 07:45:40;;;;;;;43.03;25.98;;;11.30;94.80;;;;;;5037683;28;20025;-75
2021/11/20 07:48:08;;;;;;;42.40;26.45;;;11.20;94.50;;;;;;5051830;28;20025;-75
2021/11/20 07:50:34;;;;;;;40.60;25.50;;;11.30;94.50;;;;;;5046834;28;20074;-75
2021/11/20 07:53:00;;;;;;;43.25;26.98;;;11.20;94.50;;;;;;5035926;28;20033;-75
2021/11/20 07:55:25;;;;;;;48.38;28.45;;;11.30;94.40;;;;;;5037588;28;20377;-75
2021/11/20 07:57:51;;;;;;;41.55;27.42;;;11.30;94.30;;;;;;5039772;28;20038;-73
2021/11/20 08:00:19;;;;;;;50.75;29.48;;;11.20;94.20;;;;;;5031843;28;20025;-74
2021/11/20 08:02:46;;;;;;;46.70;30.80;;;11.20;94.20;;;;;;5033025;28;20482;-74
2021/11/20 08:05:12;;;;;;;46.28;29.25;;;11.20;94.20;;;;;;5035585;28;20346;-75
2021/11/20 08:07:38;;;;;;;49.55;31.50;;;11.10;94.10;;;;;;5023927;28;20025;-74
2021/11/20 08:10:08;;;;;;;48.50;31.48;;;11.20;94.10;;;;;;5031691;28;20025;-74
2021/11/20 08:12:34;;;;;;;51.17;30.23;;;11.20;94.30;;;;;;5047400;28;20547;-74
2021/11/20 08:15:00;;;;;;;47.05;31.73;;;11.20;94.10;;;;;;5019195;28;20025;-75
2021/11/20 08:17:26;;;;;;;49.20;31.90;;;11.20;94.10;;;;;;5043337;28;20026;-74
2021/11/20 08:19:53;;;;;;;51.47;33.47;;;11.20;94.00;;;;;;5036776;28;20037;-74
2021/11/20 08:22:19;;;;;;;50.80;34.55;;;11.30;94.10;;;;;;5036890;28;20560;-75
2021/11/20 08:24:45;;;;;;;54.65;34.25;;;11.20;93.90;;;;;;5036799;28;20030;-74
2021/11/20 08:27:11;;;;;;;52.10;33.88;;;11.30;94.00;;;;;;5050158;28;20022;-75
2021/11/20 08:29:38;;;;;;;58.47;37.90;;;11.20;93.90;;;;;;5055183;28;20025;-74
2021/11/20 08:32:06;;;;;;;57.05;36.33;;;11.20;93.80;;;;;;5055391;28;20029;-74
2021/11/20 08:34:33;;;;;;;54.42;37.25;;;11.20;93.80;;;;;;5053857;28;20048;-74
2021/11/20 08:37:00;;;;;;;58.80;37.47;;;11.20;93.80;;;;;;5054938;28;20052;-74
2021/11/20 08:39:27;;;;;;;54.05;35.70;;;11.20;93.80;;;;;;5048049;28;20029;-74
2021/11/20 08:41:53;;;;;;;57.28;37.20;;;11.20;93.80;;;;;;5039125;28;20497;-75
2021/11/20 08:44:19;;;;;;;59.90;39.50;;;11.20;93.80;;;;;;5035152;28;20034;-75
2021/11/20 08:46:46;;;;;;;54.97;37.45;;;11.20;93.80;;;;;;5017843;28;20405;-75
2021/11/20 08:49:13;;;;;;;58.38;39.50;;;11.20;93.80;;;;;;5036339;28;20028;-75
2021/11/20 08:51:39;;;;;;;58.50;37.17;;;11.20;93.80;;;;;;5036362;28;20044;-75
2021/11/20 08:54:06;;;;;;;60.08;38.40;;;11.20;93.80;;;;;;5035289;28;20021;-75
2021/11/20 08:56:39;;;;;;;56.50;38.20;;;11.30;93.80;;;;;;5035907;28;20075;-75
2021/11/20 08:59:07;;;;;;;45.28;29.65;;;11.20;93.70;;;;;;5036012;28;20105;-75
2021/11/20 09:01:40;;;;;;;53.00;36.13;;;11.20;93.70;;;;;;5034853;28;20037;-75
2021/11/20 09:04:08;;;;;;;54.00;36.10;;;11.20;93.70;;;;;;5035894;28;20378;-74
2021/11/20 09:06:46;;;;;;;58.55;37.97;;;11.30;93.70;;;;;;5034749;28;20025;-75
2021/11/20 09:09:48;;;;;;;55.13;36.60;;;11.30;94.00;;;;;;5035728;28;20032;-75
2021/11/20 09:12:24;;;;;;;57.60;38.75;;;11.30;93.80;;;;;;5064612;28;20022;-75
2021/11/20 09:15:02;;;;;;;59.50;39.57;;;11.30;93.70;;;;;;5040147;28;20040;-75
2021/11/20 09:17:29;;;;;;;58.45;37.53;;;11.30;93.70;;;;;;5054093;28;20025;-75
2021/11/20 09:19:54;;;;;;;56.78;36.42;;;11.30;93.70;;;;;;5054471;28;20029;-75
2021/11/20 09:22:21;;;;;;;55.47;37.25;;;11.40;93.80;;;;;;5054435;28;20029;-74
2021/11/20 09:24:48;;;;;;;56.28;38.28;;;11.40;93.90;;;;;;5055373;28;20029;-74
2021/11/20 09:27:15;;;;;;;59.85;39.13;;;11.40;93.60;;;;;;5054170;28;20020;-75
2021/11/20 09:29:42;;;;;;;52.42;36.40;;;11.40;93.50;;;;;;5054127;28;20029;-75
2021/11/20 09:32:09;;;;;;;51.67;35.50;;;11.50;93.50;;;;;;5055391;28;20024;-75
2021/11/20 09:34:35;;;;;;;48.67;33.40;;;11.40;93.40;;;;;;5055197;28;20163;-75
2021/11/20 09:37:01;;;;;;;46.47;33.25;;;11.50;93.40;;;;;;5053662;28;20071;-74
2021/11/20 09:39:32;;;;;;;49.53;32.95;;;11.50;93.10;;;;;;5052230;28;20503;-74
2021/11/20 09:42:19;;;;;;;47.55;31.67;;;11.50;93.10;;;;;;5050403;28;20501;-74
2021/11/20 09:44:48;;;;;;;47.75;32.90;;;11.60;93.10;;;;;;5035418;28;20116;-74
2021/11/20 09:47:29;;;;;;;48.05;34.08;;;11.60;93.00;;;;;;5035291;28;20025;-74
2021/11/20 09:50:18;;;;;;;45.65;31.30;;;11.60;92.90;;;;;;5034120;28;20021;-74
2021/11/20 09:52:47;;;;;;;51.70;33.83;;;11.60;92.90;;;;;;5035536;28;20144;-74
2021/11/20 09:55:26;;;;;;;46.17;33.42;;;11.60;92.80;;;;;;5041363;28;20025;-75
2021/11/20 09:58:09;;;;;;;45.85;31.02;;;11.60;92.90;;;;;;5055350;28;20405;-75
2021/11/20 10:00:59;;;;;;;43.80;30.90;;;11.60;92.80;;;;;;5055073;28;20033;-75
2021/11/20 10:03:45;;;;;;;44.55;30.27;;;11.60;92.90;;;;;;5055158;28;20033;-75
2021/11/20 10:06:20;;;;;;;49.53;31.88;;;11.60;93.00;;;;;;5053821;28;20392;-76
2021/11/20 10:08:47;;;;;;;50.08;34.05;;;11.60;92.90;;;;;;5055107;28;20516;-75
2021/11/20 10:11:32;;;;;;;47.08;32.67;;;11.60;92.80;;;;;;5053577;28;20080;-75
2021/11/20 10:14:11;;;;;;;54.08;36.00;;;11.60;92.90;;;;;;5054578;28;20033;-75
2021/11/20 10:16:43;;;;;;;49.38;32.28;;;11.60;92.90;;;;;;5054416;28;20393;-75
2021/11/20 10:19:32;;;;;;;51.35;34.17;;;11.60;92.90;;;;;;5054738;28;20037;-75
2021/11/20 10:22:19;;;;;;;50.28;33.38;;;11.60;93.00;;;;;;5054640;28;20033;-75
2021/11/20 10:25:03;;;;;;;48.67;35.28;;;11.60;93.00;;;;;;5054555;28;20484;-77
2021/11/20 10:27:47;;;;;;;52.20;35.67;;;11.70;92.90;;;;;;5054945;28;20075;-77
2021/11/20 10:30:16;;;;;;;;;;;11.60;92.80;;;;;;5055318;28;20026;-78
2021/11/20 10:33:03;;;;;;;52.47;34.17;;;11.60;92.90;;;;;;5087002;28;19905;-77
2021/11/20 10:35:37;;;;;;;52.63;33.47;;;11.60;92.90;;;;;;5053036;28;20090;-77
2021/11/20 10:38:20;;;;;;;47.47;32.85;;;11.60;92.90;;;;;;5054226;28;20040;-76
2021/11/20 10:40:57;;;;;;;48.42;31.52;;;11.70;93.00;;;;;;5054701;28;20024;-77
2021/11/20 10:43:34;;;;;;;45.30;31.88;;;11.70;92.90;;;;;;5053220;28;20024;-77
2021/11/20 10:46:06;;;;;;;47.67;30.92;;;11.70;92.90;;;;;;5042394;28;20033;-77
2021/11/20 10:48:40;;;;;;;46.75;32.92;;;11.70;92.90;;;;;;5032655;28;20447;-77
2021/11/20 10:51:21;;;;;;;49.45;32.05;;;11.70;92.90;;;;;;5065649;28;20022;-78
2021/11/20 10:54:19;;;;;;;47.13;31.90;;;11.70;92.80;;;;;;5032702;28;20030;-77
2021/11/20 10:57:08;;;;;;;52.78;33.85;;;11.70;92.90;;;;;;5034029;28;20029;-74
2021/11/20 11:00:07;;;;;;;50.42;33.50;;;11.70;92.90;;;;;;5033651;28;20441;-74
2021/11/20 11:02:53;;;;;;;48.53;33.38;;;11.70;92.90;;;;;;5033861;28;20091;-77
2021/11/20 11:05:36;;;;;;;45.97;29.85;;;11.70;92.90;;;;;;5032486;28;20034;-77
2021/11/20 11:08:13;;;;;;;44.30;31.27;;;11.70;92.90;;;;;;5033673;28;20382;-77
2021/11/20 11:10:48;;;;;;;42.67;29.80;;;11.70;92.90;;;;;;5033886;28;20028;-77
2021/11/20 11:13:30;;;;;;;45.60;30.27;;;11.70;92.90;;;;;;5065589;28;20017;-78
2021/11/20 11:16:34;;;;;;;45.95;30.58;;;11.70;93.00;;;;;;5033460;28;20025;-77
2021/11/20 11:19:02;;;;;;;45.47;31.00;;;11.80;93.10;;;;;;5047684;28;20034;-78
2021/11/20 11:21:56;;;;;;;43.63;29.58;;;11.80;93.00;;;;;;5032251;28;20315;-76
2021/11/20 11:24:52;;;;;;;49.00;31.90;;;11.70;93.00;;;;;;5033276;28;20053;-74
2021/11/20 11:27:24;;;;;;;45.28;30.98;;;11.70;93.10;;;;;;5047497;28;20028;-75
2021/11/20 11:30:05;;;;;;;46.80;30.92;;;11.70;93.10;;;;;;5052737;28;20079;-75
2021/11/20 11:32:34;;;;;;;53.55;35.22;;;11.80;93.20;;;;;;5052074;28;20028;-75
2021/11/20 11:35:09;;;;;;;54.38;34.75;;;11.80;93.10;;;;;;5052900;28;20025;-73
2021/11/20 11:37:43;;;;;;;52.75;33.95;;;11.70;93.10;;;;;;5052436;28;20033;-73
2021/11/20 11:40:46;;;;;;;55.58;34.60;;;11.80;93.20;;;;;;5051569;28;20025;-73
2021/11/20 11:43:24;;;;;;;58.15;36.95;;;11.80;93.20;;;;;;5052006;28;20028;-73
2021/11/20 11:46:06;;;;;;;55.85;35.55;;;11.80;93.10;;;;;;5051947;28;20377;-74
2021/11/20 11:48:59;;;;;;;55.63;35.17;;;11.80;93.20;;;;;;5048948;28;20032;-74
2021/11/20 11:51:46;;;;;;;50.20;32.78;;;11.80;93.20;;;;;;5051793;28;20054;-73
2021/11/20 11:54:11;;;;;;;54.50;35.60;;;11.80;93.20;;;;;;5051465;28;20083;-73
2021/11/20 11:56:47;;;;;;;54.13;34.85;;;11.70;93.10;;;;;;5051700;28;20065;-73
2021/11/20 11:59:18;;;;;;;52.33;35.85;;;11.80;93.20;;;;;;5051547;28;20108;-73
2021/11/20 12:01:52;;;;;;;55.83;35.42;;;11.80;93.20;;;;;;5051567;28;20037;-74
2021/11/20 12:04:38;;;;;;;50.17;34.00;;;11.80;93.20;;;;;;5052939;28;20079;-74
2021/11/20 12:07:18;;;;;;;50.08;33.25;;;11.80;93.20;;;;;;5051679;28;20493;-73
2021/11/20 12:09:48;;;;;;;50.28;34.05;;;11.80;93.20;;;;;;5052952;28;20100;-73
2021/11/20 12:12:30;;;;;;;48.60;32.15;;;11.80;93.20;;;;;;5053178;28;20051;-74
2021/11/20 12:15:41;;;;;;;45.20;30.63;;;11.80;93.20;;;;;;5051674;28;20017;-74
2021/11/20 12:18:39;;;;;;;43.20;29.23;;;11.80;93.20;;;;;;5035585;28;20033;-74
2021/11/20 12:21:26;;;;;;;43.65;29.45;;;11.80;93.20;;;;;;5052778;28;20017;-74
2021/11/20 12:24:10;;;;;;;47.35;28.85;;;11.80;93.20;;;;;;5052793;28;20463;-75
2021/11/20 12:26:58;;;;;;;42.45;26.80;;;11.80;93.30;;;;;;5051283;28;20029;-74
2021/11/20 12:30:06;;;;;;;40.47;26.33;;;11.80;93.40;;;;;;5052597;28;20029;-73
2021/11/20 12:32:54;;;;;;;46.15;28.10;;;11.80;93.40;;;;;;5052471;28;20102;-74
2021/11/20 12:35:49;;;;;;;46.95;27.73;;;11.70;93.40;;;;;;5051907;28;20037;-73
2021/11/20 12:38:45;;;;;;;43.50;28.23;;;11.80;93.50;;;;;;5050435;28;20036;-73
2021/11/20 12:41:40;;;;;;;37.53;26.48;;;11.80;93.50;;;;;;5050092;28;20377;-73
2021/11/20 12:44:43;;;;;;;39.35;27.17;;;11.80;93.60;;;;;;5051289;28;20029;-73
2021/11/20 12:47:46;;;;;;;41.60;26.13;;;11.70;93.50;;;;;;5052381;28;20084;-73
2021/11/20 12:50:24;;;;;;;40.28;25.88;;;11.70;93.60;;;;;;5052068;28;20033;-73
2021/11/20 12:53:03;;;;;;;40.08;25.67;;;11.80;93.60;;;;;;5052009;28;20021;-73
2021/11/20 12:55:41;;;;;;;38.42;24.83;;;11.80;93.60;;;;;;5052055;28;20120;-73